createdAt,value
2023-03-11T00:01:00.953Z,0.9
2023-03-11T00:02:00.970Z,1
2023-03-11T00:06:00.974Z,1.1
2023-03-11T00:09:00.948Z,1
2023-03-11T00:10:00.977Z,0.9
2023-03-11T00:12:00.957Z,1
2023-03-11T00:15:01.032Z,0.8
2023-03-11T00:17:00.973Z,1
2023-03-11T00:19:00.966Z,0.8
2023-03-11T00:25:00.930Z,1
2023-03-11T00:28:00.958Z,0.9
2023-03-11T00:30:01.007Z,1
2023-03-11T00:32:00.963Z,0.8
2023-03-11T00:33:01.019Z,0.9
2023-03-11T00:36:00.988Z,1
2023-03-11T00:38:00.969Z,0.9
2023-03-11T00:40:00.992Z,0.8
2023-03-11T00:42:00.996Z,0.9
2023-03-11T00:46:00.946Z,0.7
2023-03-11T00:48:01.006Z,0.8
2023-03-11T00:50:00.964Z,0.6
2023-03-11T00:52:00.965Z,0.5
2023-03-11T00:54:00.986Z,0.6
2023-03-11T00:56:00.973Z,0.5
2023-03-11T00:58:00.991Z,0.4
2023-03-11T01:00:01.045Z,0.4
2023-03-11T01:01:01.137Z,0.3
2023-03-11T01:02:01.144Z,0.4
2023-03-11T01:04:01.181Z,0.3
2023-03-11T01:06:01.141Z,0.4
2023-03-11T01:09:01.007Z,0.3
2023-03-11T01:13:01.038Z,0.3
2023-03-11T01:15:01.183Z,0.3
2023-03-11T01:17:01.101Z,0.2
2023-03-11T01:19:01.016Z,0.3
2023-03-11T01:21:00.958Z,0.2
2023-03-11T01:22:00.967Z,0.1
2023-03-11T01:24:00.993Z,0.1
2023-03-11T01:25:00.974Z,0.2
2023-03-11T01:26:01.012Z,0.1
2023-03-11T01:32:01.006Z,0
2023-03-11T01:34:01.033Z,0
2023-03-11T01:36:01.040Z,0
2023-03-11T01:40:00.948Z,0
2023-03-11T01:42:01.032Z,-0.1
2023-03-11T01:45:00.968Z,0.1
2023-03-11T01:46:00.996Z,0
2023-03-11T01:49:00.910Z,0
2023-03-11T01:51:00.948Z,-0.1
2023-03-11T01:52:00.993Z,-0.2
2023-03-11T01:54:00.916Z,-0.2
2023-03-11T01:55:00.940Z,-0.1
2023-03-11T01:56:00.935Z,-0.2
2023-03-11T01:57:00.943Z,0
2023-03-11T01:58:00.932Z,-0.2
2023-03-11T02:01:00.931Z,-0.3
2023-03-11T02:02:01.042Z,-0.2
2023-03-11T02:05:00.937Z,-0.3
2023-03-11T02:06:00.934Z,-0.4
2023-03-11T02:07:00.982Z,-0.3
2023-03-11T02:10:00.940Z,-0.3
2023-03-11T02:11:01.043Z,-0.2
2023-03-11T02:14:00.954Z,-0.3
2023-03-11T02:17:00.937Z,-0.2
2023-03-11T02:18:00.989Z,-0.4
2023-03-11T02:20:00.996Z,-0.3
2023-03-11T02:21:00.987Z,-0.2
2023-03-11T02:22:01.045Z,-0.3
2023-03-11T02:25:00.965Z,-0.4
2023-03-11T02:28:00.960Z,-0.4
2023-03-11T02:30:01.017Z,-0.3
2023-03-11T02:33:00.980Z,-0.3
2023-03-11T02:35:00.980Z,-0.4
2023-03-11T02:36:01.144Z,-0.3
2023-03-11T02:40:01.026Z,-0.5
2023-03-11T02:44:00.982Z,-0.5
2023-03-11T02:47:01.050Z,-0.4
2023-03-11T02:48:00.988Z,-0.6
2023-03-11T02:49:00.975Z,-0.5
2023-03-11T02:50:01.020Z,-0.6
2023-03-11T02:52:00.955Z,-0.7
2023-03-11T02:53:01.050Z,-0.4
2023-03-11T02:55:00.937Z,-0.6
2023-03-11T02:57:00.945Z,-0.5
2023-03-11T02:58:00.960Z,-0.6
2023-03-11T03:00:00.959Z,-0.7
2023-03-11T03:01:01.087Z,-0.6
2023-03-11T03:05:00.996Z,-0.7
2023-03-11T03:06:00.979Z,-0.6
2023-03-11T03:08:00.998Z,-0.7
2023-03-11T03:10:01.019Z,-0.6
2023-03-11T03:14:00.976Z,-0.7
2023-03-11T03:16:00.950Z,-0.5
2023-03-11T03:17:01.091Z,-0.6
2023-03-11T03:19:00.941Z,-0.7
2023-03-11T03:20:00.953Z,-0.6
2023-03-11T03:24:01.022Z,-0.7
2023-03-11T03:25:01.015Z,-0.6
2023-03-11T03:29:00.953Z,-0.5
2023-03-11T03:30:00.957Z,-0.6
2023-03-11T03:31:00.982Z,-0.7
2023-03-11T03:32:01.011Z,-0.5
2023-03-11T03:34:01.046Z,-0.6
2023-03-11T03:38:00.953Z,-0.5
2023-03-11T03:39:01.074Z,-0.6
2023-03-11T03:41:01.003Z,-0.6
2023-03-11T03:44:00.967Z,-0.7
2023-03-11T03:45:01.040Z,-0.5
2023-03-11T03:48:01.027Z,-0.7
2023-03-11T03:50:00.994Z,-0.5
2023-03-11T03:53:00.950Z,-0.6
2023-03-11T03:54:00.998Z,-0.7
2023-03-11T03:55:01.000Z,-0.6
2023-03-11T04:02:01.068Z,-0.7
2023-03-11T04:06:01.056Z,-0.6
2023-03-11T04:07:01.085Z,-0.7
2023-03-11T04:10:01.018Z,-0.8
2023-03-11T04:12:00.952Z,-0.9
2023-03-11T04:14:01.016Z,-0.7
2023-03-11T04:17:01.039Z,-0.8
2023-03-11T04:18:01.019Z,-0.7
2023-03-11T04:19:01.024Z,-0.8
2023-03-11T04:20:01.101Z,-0.7
2023-03-11T04:23:00.976Z,-0.8
2023-03-11T04:25:00.979Z,-0.7
2023-03-11T04:28:00.988Z,-0.7
2023-03-11T04:29:01.061Z,-0.9
2023-03-11T04:30:01.142Z,-0.8
2023-03-11T04:32:00.998Z,-0.9
2023-03-11T04:34:00.984Z,-0.8
2023-03-11T04:36:00.978Z,-0.8
2023-03-11T04:37:00.961Z,-0.9
2023-03-11T04:38:00.963Z,-0.8
2023-03-11T04:41:00.973Z,-0.9
2023-03-11T04:43:00.957Z,-0.9
2023-03-11T04:48:01.008Z,-0.8
2023-03-11T04:51:00.973Z,-1
2023-03-11T04:52:01.014Z,-0.9
2023-03-11T04:57:00.957Z,-1.1
2023-03-11T04:58:00.958Z,-1
2023-03-11T05:00:01.061Z,-0.9
2023-03-11T05:03:00.963Z,-0.9
2023-03-11T05:04:00.966Z,-1
2023-03-11T05:06:00.997Z,-0.8
2023-03-11T05:08:00.984Z,-1
2023-03-11T05:09:00.999Z,-0.9
2023-03-11T05:11:00.981Z,-1
2023-03-11T05:12:01.011Z,-0.9
2023-03-11T05:14:00.985Z,-1
2023-03-11T05:15:01.002Z,-0.8
2023-03-11T05:20:00.919Z,-0.9
2023-03-11T05:21:00.929Z,-1
2023-03-11T05:23:00.906Z,-0.9
2023-03-11T05:24:00.936Z,-1
2023-03-11T05:28:00.905Z,-0.9
2023-03-11T05:29:00.963Z,-1.1
2023-03-11T05:30:00.950Z,-1
2023-03-11T05:33:00.933Z,-0.9
2023-03-11T05:34:00.948Z,-1
2023-03-11T05:36:00.961Z,-1.1
2023-03-11T05:37:03.066Z,-0.9
2023-03-11T05:39:00.972Z,-1.1
2023-03-11T05:42:01.064Z,-1
2023-03-11T05:44:00.926Z,-1
2023-03-11T05:48:00.936Z,-0.9
2023-03-11T05:50:00.994Z,-1
2023-03-11T05:53:00.936Z,-1
2023-03-11T05:54:00.951Z,-0.9
2023-03-11T05:55:00.968Z,-1
2023-03-11T05:57:00.934Z,-1
2023-03-11T05:58:01.034Z,-1.1
2023-03-11T05:59:00.966Z,-1
2023-03-11T06:01:01.032Z,-1.1
2023-03-11T06:02:01.333Z,-1
2023-03-11T06:06:01.182Z,-1.1
2023-03-11T06:08:00.972Z,-1
2023-03-11T06:09:00.964Z,-1.2
2023-03-11T06:11:01.057Z,-1
2023-03-11T06:16:01.246Z,-1
2023-03-11T06:17:01.249Z,-1.1
2023-03-11T06:20:01.046Z,-1.2
2023-03-11T06:22:01.033Z,-1.1
2023-03-11T06:25:00.966Z,-1
2023-03-11T06:26:00.958Z,-1.1
2023-03-11T06:28:01.167Z,-1
2023-03-11T06:31:00.972Z,-1
2023-03-11T06:33:00.976Z,-0.9
2023-03-11T06:34:01.339Z,-1.1
2023-03-11T06:38:01.013Z,-0.9
2023-03-11T06:40:01.018Z,-1
2023-03-11T06:42:00.942Z,-0.9
2023-03-11T06:43:00.996Z,-1
2023-03-11T06:44:01.006Z,-1.1
2023-03-11T06:45:01.010Z,-1
2023-03-11T06:47:01.211Z,-1
2023-03-11T06:49:01.022Z,-1
2023-03-11T06:52:01.007Z,-0.9
2023-03-11T06:54:01.018Z,-0.9
2023-03-11T06:56:00.918Z,-0.9
2023-03-11T06:58:00.981Z,-1
2023-03-11T07:03:00.950Z,-1
2023-03-11T07:04:01.030Z,-0.8
2023-03-11T07:06:00.936Z,-0.8
2023-03-11T07:07:00.936Z,-0.9
2023-03-11T07:08:00.935Z,-0.8
2023-03-11T07:09:00.993Z,-0.9
2023-03-11T07:11:00.946Z,-0.8
2023-03-11T07:12:00.962Z,-0.9
2023-03-11T07:14:00.986Z,-0.8
2023-03-11T07:16:01.000Z,-0.7
2023-03-11T07:18:00.974Z,-0.8
2023-03-11T07:19:01.025Z,-0.7
2023-03-11T07:22:00.950Z,-0.8
2023-03-11T07:23:00.942Z,-0.7
2023-03-11T07:24:00.993Z,-0.8
2023-03-11T07:26:00.971Z,-0.6
2023-03-11T07:28:00.936Z,-0.7
2023-03-11T07:30:01.062Z,-0.8
2023-03-11T07:34:00.940Z,-0.6
2023-03-11T07:39:02.565Z,-0.7
2023-03-11T07:40:00.952Z,-0.4
2023-03-11T07:43:00.959Z,-0.5
2023-03-11T07:44:00.941Z,-0.7
2023-03-11T07:45:00.971Z,-0.5
2023-03-11T07:47:01.026Z,-0.7
2023-03-11T07:49:00.945Z,-0.5
2023-03-11T07:50:00.939Z,-0.4
2023-03-11T07:54:00.945Z,-0.6
2023-03-11T07:56:01.003Z,-0.5
2023-03-11T08:01:00.948Z,-0.6
2023-03-11T08:03:00.932Z,-0.4
2023-03-11T08:06:01.014Z,-0.5
2023-03-11T08:09:00.987Z,-0.4
2023-03-11T08:11:00.919Z,-0.3
2023-03-11T08:12:00.954Z,-0.4
2023-03-11T08:14:00.971Z,-0.5
2023-03-11T08:16:01.009Z,-0.6
2023-03-11T08:18:00.963Z,-0.6
2023-03-11T08:20:00.975Z,-0.6
2023-03-11T08:22:00.927Z,-0.6
2023-03-11T08:25:00.917Z,-0.4
2023-03-11T08:26:00.916Z,-0.5
2023-03-11T08:28:00.936Z,-0.5
2023-03-11T08:30:01.067Z,-0.5
2023-03-11T08:32:00.942Z,-0.6
2023-03-11T08:33:00.924Z,-0.4
2023-03-11T08:34:00.994Z,-0.3
2023-03-11T08:38:00.930Z,-0.3
2023-03-11T08:40:00.939Z,-0.1
2023-03-11T08:41:00.924Z,-0.2
2023-03-11T08:42:01.001Z,-0.1
2023-03-11T08:44:00.968Z,-0.1
2023-03-11T08:48:00.965Z,0
2023-03-11T08:50:00.962Z,-0.1
2023-03-11T08:52:00.960Z,0
2023-03-11T08:54:00.969Z,0.1
2023-03-11T08:56:01.019Z,0.1
2023-03-11T08:58:00.912Z,0.2
2023-03-11T09:01:00.927Z,0.1
2023-03-11T09:08:01.037Z,0.2
2023-03-11T09:10:00.936Z,0.2
2023-03-11T09:11:00.974Z,0.1
2023-03-11T09:12:00.978Z,0
2023-03-11T09:14:00.936Z,0.1
2023-03-11T09:15:00.947Z,0.2
2023-03-11T09:18:00.957Z,0.2
2023-03-11T09:20:00.983Z,0.2
2023-03-11T09:22:01.007Z,0
2023-03-11T09:24:00.922Z,0
2023-03-11T09:25:00.954Z,0.1
2023-03-11T09:27:00.926Z,0.1
2023-03-11T09:28:00.937Z,0.2
2023-03-11T09:30:00.973Z,0.2
2023-03-11T09:33:00.958Z,0.3
2023-03-11T09:35:00.936Z,0.3
2023-03-11T09:36:00.985Z,0.2
2023-03-11T09:38:00.954Z,0.3
2023-03-11T09:40:00.955Z,0.4
2023-03-11T09:44:00.930Z,0.5
2023-03-11T09:46:00.926Z,0.4
2023-03-11T09:48:00.952Z,0.5
2023-03-11T09:50:00.959Z,0.4
2023-03-11T09:53:00.962Z,0.5
2023-03-11T09:54:00.969Z,0.3
2023-03-11T09:56:00.943Z,0.3
2023-03-11T09:57:01.042Z,0.4
2023-03-11T10:02:01.020Z,0.5
2023-03-11T10:05:00.964Z,0.5
2023-03-11T10:06:00.991Z,0.4
2023-03-11T10:07:00.974Z,0.3
2023-03-11T10:11:00.937Z,0.5
2023-03-11T10:12:00.967Z,0.4
2023-03-11T10:16:00.971Z,0.5
2023-03-11T10:18:00.932Z,0.4
2023-03-11T10:21:00.943Z,0.4
2023-03-11T10:24:00.948Z,0.5
2023-03-11T10:25:01.076Z,0.4
2023-03-11T10:29:00.923Z,0.5
2023-03-11T10:31:00.924Z,0.4
2023-03-11T10:33:00.923Z,0.6
2023-03-11T10:37:00.956Z,0.7
2023-03-11T10:40:00.963Z,0.8
2023-03-11T10:41:00.957Z,0.9
2023-03-11T10:42:00.931Z,1
2023-03-11T10:44:00.946Z,1.1
2023-03-11T10:48:00.938Z,1
2023-03-11T10:49:00.947Z,1.1
2023-03-11T10:53:00.968Z,1.1
2023-03-11T10:54:00.992Z,0.9
2023-03-11T10:56:00.987Z,1
2023-03-11T11:03:00.946Z,0.9
2023-03-11T11:04:01.077Z,1.1
2023-03-11T11:05:01.003Z,0.9
2023-03-11T11:08:00.952Z,1.2
2023-03-11T11:10:00.991Z,1.5
2023-03-11T11:13:00.921Z,1.6
2023-03-11T11:15:00.956Z,1.7
2023-03-11T11:16:01.018Z,1.6
2023-03-11T11:18:01.025Z,1.5
2023-03-11T11:20:00.972Z,1.3
2023-03-11T11:22:00.932Z,1.1
2023-03-11T11:23:00.934Z,1
2023-03-11T11:24:00.955Z,0.9
2023-03-11T11:25:00.976Z,0.8
2023-03-11T11:26:00.940Z,1
2023-03-11T11:30:01.070Z,1.1
2023-03-11T11:32:00.959Z,1
2023-03-11T11:33:00.970Z,1.1
2023-03-11T11:34:00.992Z,1
2023-03-11T11:36:00.975Z,1.1
2023-03-11T11:37:01.035Z,1
2023-03-11T11:41:01.002Z,0.9
2023-03-11T11:45:00.931Z,1
2023-03-11T11:46:00.948Z,0.8
2023-03-11T11:47:00.957Z,0.9
2023-03-11T11:50:01.035Z,1.1
2023-03-11T11:53:01.021Z,1.1
2023-03-11T11:55:00.953Z,1.2
2023-03-11T11:56:01.018Z,1.3
2023-03-11T12:00:00.993Z,1.5
2023-03-11T12:03:00.953Z,1.6
2023-03-11T12:04:01.012Z,1.7
2023-03-11T12:05:01.012Z,1.5
2023-03-11T12:06:01.020Z,1.7
2023-03-11T12:07:01.002Z,1.5
2023-03-11T12:09:00.976Z,1.6
2023-03-11T12:11:00.992Z,1.6
2023-03-11T12:12:00.974Z,1.7
2023-03-11T12:14:01.046Z,1.8
2023-03-11T12:15:01.106Z,1.7
2023-03-11T12:16:01.136Z,1.8
2023-03-11T12:19:00.980Z,2
2023-03-11T12:20:01.009Z,1.9
2023-03-11T12:23:01.106Z,1.8
2023-03-11T12:25:00.916Z,1.6
2023-03-11T12:26:00.935Z,1.5
2023-03-11T12:28:00.941Z,1.7
2023-03-11T12:31:01.022Z,1.4
2023-03-11T12:33:00.961Z,1.5
2023-03-11T12:36:00.977Z,1.4
2023-03-11T12:37:00.965Z,1.2
2023-03-11T12:39:00.909Z,1.2
2023-03-11T12:40:00.975Z,1.1
2023-03-11T12:43:00.934Z,1
2023-03-11T12:46:00.930Z,0.9
2023-03-11T12:47:00.934Z,1
2023-03-11T12:48:00.932Z,0.9
2023-03-11T12:50:01.015Z,1
2023-03-11T12:52:01.043Z,1
2023-03-11T12:54:01.006Z,1
2023-03-11T12:56:00.937Z,1.1
2023-03-11T13:00:00.945Z,1.2
2023-03-11T13:02:01.005Z,1.2
2023-03-11T13:07:00.917Z,1.3
2023-03-11T13:08:00.917Z,1.2
2023-03-11T13:10:01.116Z,1.4
2023-03-11T13:12:00.944Z,1.3
2023-03-11T13:14:00.962Z,1.3
2023-03-11T13:15:02.546Z,1.4
2023-03-11T13:19:00.939Z,1.5
2023-03-11T13:21:00.944Z,1.7
2023-03-11T13:22:00.959Z,1.8
2023-03-11T13:25:00.956Z,1.8
2023-03-11T13:26:01.000Z,1.7
2023-03-11T13:28:00.945Z,1.6
2023-03-11T13:32:00.966Z,1.6
2023-03-11T13:34:01.002Z,1.5
2023-03-11T13:36:01.008Z,1.5
2023-03-11T13:38:00.999Z,1.5
2023-03-11T13:43:03.442Z,1.3
2023-03-11T13:45:00.994Z,1.4
2023-03-11T13:47:00.973Z,1.3
2023-03-11T13:52:00.968Z,1.7
2023-03-11T13:53:00.970Z,1.6
2023-03-11T13:55:00.959Z,1.5
2023-03-11T13:57:00.957Z,1.6
2023-03-11T13:58:00.965Z,1.7
2023-03-11T14:00:00.986Z,1.8
2023-03-11T14:04:00.997Z,1.9
2023-03-11T14:09:00.939Z,2
2023-03-11T14:10:01.004Z,1.9
2023-03-11T14:12:00.949Z,1.9
2023-03-11T14:15:00.977Z,1.8
2023-03-11T14:16:00.969Z,1.9
2023-03-11T14:18:01.035Z,1.8
2023-03-11T14:23:00.944Z,2
2023-03-11T14:24:00.965Z,1.8
2023-03-11T14:25:00.978Z,1.9
2023-03-11T14:26:00.979Z,1.8
2023-03-11T14:28:01.051Z,1.8
2023-03-11T14:31:00.966Z,1.8
2023-03-11T14:33:00.999Z,1.9
2023-03-11T14:34:01.001Z,1.8
2023-03-11T14:36:01.018Z,1.9
2023-03-11T14:40:00.952Z,1.8
2023-03-11T14:43:00.970Z,1.9
2023-03-11T14:45:01.132Z,2
2023-03-11T14:47:00.951Z,1.8
2023-03-11T14:48:00.961Z,1.7
2023-03-11T14:51:00.945Z,1.8
2023-03-11T14:52:01.008Z,1.7
2023-03-11T14:54:00.972Z,1.6
2023-03-11T14:59:07.136Z,1.6
2023-03-11T15:00:00.959Z,1.7
2023-03-11T15:02:00.932Z,1.6
2023-03-11T15:03:01.015Z,1.7
2023-03-11T15:04:00.985Z,1.5
2023-03-11T15:09:00.942Z,1.4
2023-03-11T15:10:00.985Z,1.6
2023-03-11T15:12:00.950Z,1.5
2023-03-11T15:16:01.047Z,1.3
2023-03-11T15:18:00.952Z,1.2
2023-03-11T15:20:01.030Z,1.4
2023-03-11T15:22:00.932Z,1.3
2023-03-11T15:23:01.561Z,1.4
2023-03-11T15:25:00.971Z,1.5
2023-03-11T15:26:00.954Z,1.4
2023-03-11T15:28:00.964Z,1.6
2023-03-11T15:33:00.907Z,1.6
2023-03-11T15:34:00.997Z,1.5
2023-03-11T15:36:00.994Z,1.5
2023-03-11T15:43:00.954Z,1.6
2023-03-11T15:44:01.006Z,1.5
2023-03-11T15:47:00.966Z,1.4
2023-03-11T15:48:01.010Z,1.5
2023-03-11T15:50:00.957Z,1.5
2023-03-11T15:52:00.953Z,1.4
2023-03-11T15:53:00.944Z,1.5
2023-03-11T15:58:01.015Z,1.3
2023-03-11T16:00:00.974Z,1.4
2023-03-11T16:06:00.944Z,1.2
2023-03-11T16:07:07.697Z,1.3
2023-03-11T16:09:00.960Z,1.3
2023-03-11T16:10:02.627Z,1.2
2023-03-11T16:11:00.973Z,1.3
2023-03-11T16:12:00.947Z,1.2
2023-03-11T16:14:00.960Z,1.3
2023-03-11T16:15:00.997Z,1.2
2023-03-11T16:17:00.929Z,1.3
2023-03-11T16:18:00.932Z,1.1
2023-03-11T16:19:00.971Z,1.2
2023-03-11T16:21:00.912Z,1.1
2023-03-11T16:25:00.978Z,1.3
2023-03-11T16:31:00.941Z,1.3
2023-03-11T16:32:00.924Z,1.1
2023-03-11T16:33:03.383Z,1.2
2023-03-11T16:35:00.914Z,1.1
2023-03-11T16:36:00.983Z,1.2
2023-03-11T16:38:00.930Z,1.2
2023-03-11T16:42:00.968Z,1.4
2023-03-11T16:44:00.944Z,1.1
2023-03-11T16:45:03.535Z,1.2
2023-03-11T16:47:00.997Z,1.1
2023-03-11T16:49:00.958Z,1
2023-03-11T16:50:00.994Z,1.1
2023-03-11T16:55:00.948Z,0.8
2023-03-11T16:56:00.978Z,0.7
2023-03-11T16:58:00.962Z,0.7
2023-03-11T17:02:00.972Z,0.6
2023-03-11T17:04:00.966Z,0.7
2023-03-11T17:05:01.018Z,0.6
2023-03-11T17:10:00.980Z,0.4
2023-03-11T17:12:00.938Z,0.5
2023-03-11T17:13:00.954Z,0.4
2023-03-11T17:15:00.983Z,0.3
2023-03-11T17:18:00.958Z,0.2
2023-03-11T17:20:00.960Z,0.1
2023-03-11T17:23:00.962Z,0.2
2023-03-11T17:24:00.963Z,0.1
2023-03-11T17:25:00.971Z,0
2023-03-11T17:27:01.037Z,0
2023-03-11T17:29:00.938Z,-0.1
2023-03-11T17:31:01.026Z,-0.2
2023-03-11T17:32:00.994Z,0
2023-03-11T17:34:00.958Z,-0.1
2023-03-11T17:38:00.951Z,-0.2
2023-03-11T17:39:00.944Z,-0.3
2023-03-11T17:40:00.989Z,-0.2
2023-03-11T17:42:00.963Z,-0.3
2023-03-11T17:44:00.963Z,-0.3
2023-03-11T17:46:00.948Z,-0.3
2023-03-11T17:49:00.954Z,-0.4
2023-03-11T17:50:00.950Z,-0.2
2023-03-11T17:52:00.968Z,-0.3
2023-03-11T17:54:00.948Z,-0.2
2023-03-11T17:55:00.986Z,-0.4
2023-03-11T17:57:00.982Z,-0.5
2023-03-11T17:59:00.928Z,-0.4
2023-03-11T18:01:00.928Z,-0.6
2023-03-11T18:02:01.002Z,-0.5
2023-03-11T18:04:01.031Z,-0.6
2023-03-11T18:06:00.953Z,-0.5
2023-03-11T18:09:00.984Z,-0.6
2023-03-11T18:10:00.974Z,-0.5
2023-03-11T18:15:01.027Z,-0.8
2023-03-11T18:17:01.044Z,-0.7
2023-03-11T18:22:01.034Z,-0.7
2023-03-11T18:26:00.967Z,-1
2023-03-11T18:30:01.011Z,-1.1
2023-03-11T18:32:01.029Z,-1.1
2023-03-11T18:34:00.960Z,-1.2
2023-03-11T18:35:00.925Z,-1.1
2023-03-11T18:37:00.958Z,-1
2023-03-11T18:38:00.928Z,-1.2
2023-03-11T18:41:00.953Z,-1.1
2023-03-11T18:42:00.935Z,-1.3
2023-03-11T18:47:01.005Z,-1.4
2023-03-11T18:52:00.971Z,-1.4
2023-03-11T18:55:00.964Z,-1.5
2023-03-11T18:57:00.931Z,-1.4
2023-03-11T18:58:00.930Z,-1.5
2023-03-11T19:00:00.938Z,-1.6
2023-03-11T19:01:00.978Z,-1.4
2023-03-11T19:02:00.955Z,-1.5
2023-03-11T19:05:01.013Z,-1.7
2023-03-11T19:06:00.940Z,-1.6
2023-03-11T19:07:06.011Z,-1.7
2023-03-11T19:08:01.000Z,-1.6
2023-03-11T19:10:00.994Z,-1.7
2023-03-11T19:12:00.920Z,-1.7
2023-03-11T19:13:01.003Z,-1.8
2023-03-11T19:15:00.980Z,-1.8
2023-03-11T19:17:00.955Z,-1.9
2023-03-11T19:18:06.853Z,-1.7
2023-03-11T19:19:00.969Z,-1.9
2023-03-11T19:22:00.941Z,-1.9
2023-03-11T19:23:00.958Z,-2
2023-03-11T19:24:00.946Z,-1.9
2023-03-11T19:25:00.962Z,-2
2023-03-11T19:28:00.966Z,-1.9
2023-03-11T19:33:00.944Z,-2
2023-03-11T19:34:01.008Z,-2.1
2023-03-11T19:36:00.986Z,-2
2023-03-11T19:40:00.956Z,-2.1
2023-03-11T19:41:00.965Z,-2
2023-03-11T19:43:00.950Z,-2.1
2023-03-11T19:44:00.960Z,-2.2
2023-03-11T19:46:01.038Z,-2.1
2023-03-11T19:47:00.965Z,-2
2023-03-11T19:48:00.940Z,-2.3
2023-03-11T19:49:00.969Z,-2.1
2023-03-11T19:51:00.990Z,-2.1
2023-03-11T19:53:00.926Z,-2.1
2023-03-11T19:55:00.965Z,-2.3
2023-03-11T19:56:01.013Z,-2.2
2023-03-11T19:58:01.012Z,-2.4
2023-03-11T20:00:00.984Z,-2.3
2023-03-11T20:02:00.990Z,-2.4
2023-03-11T20:04:00.948Z,-2.3
2023-03-11T20:09:01.030Z,-2.4
2023-03-11T20:11:01.051Z,-2.3
2023-03-11T20:13:02.569Z,-2.3
2023-03-11T20:14:00.978Z,-2.4
2023-03-11T20:15:00.975Z,-2.3
2023-03-11T20:16:01.116Z,-2.4
2023-03-11T20:20:01.037Z,-2.4
2023-03-11T20:21:01.001Z,-2.5
2023-03-11T20:23:01.019Z,-2.4
2023-03-11T20:26:01.005Z,-2.5
2023-03-11T20:28:00.961Z,-2.4
2023-03-11T20:29:01.028Z,-2.5
2023-03-11T20:31:01.093Z,-2.4
2023-03-11T20:32:01.068Z,-2.6
2023-03-11T20:37:00.991Z,-2.4
2023-03-11T20:38:00.960Z,-2.6
2023-03-11T20:39:01.160Z,-2.5
2023-03-11T20:42:01.096Z,-2.7
2023-03-11T20:44:01.067Z,-2.5
2023-03-11T20:46:01.057Z,-2.7
2023-03-11T20:49:00.962Z,-2.7
2023-03-11T20:53:01.033Z,-2.6
2023-03-11T20:56:01.031Z,-2.5
2023-03-11T21:00:01.154Z,-2.7
2023-03-11T21:02:01.159Z,-2.7
2023-03-11T21:04:01.088Z,-2.8
2023-03-11T21:06:01.061Z,-2.8
2023-03-11T21:07:00.973Z,-2.7
2023-03-11T21:08:00.928Z,-2.8
2023-03-11T21:09:01.056Z,-2.7
2023-03-11T21:13:01.019Z,-2.8
2023-03-11T21:16:00.982Z,-2.7
2023-03-11T21:19:00.983Z,-2.8
2023-03-11T21:21:01.017Z,-2.8
2023-03-11T21:25:01.098Z,-2.9
2023-03-11T21:26:00.967Z,-2.8
2023-03-11T21:27:01.058Z,-2.7
2023-03-11T21:28:00.972Z,-2.8
2023-03-11T21:30:00.991Z,-2.9
2023-03-11T21:32:01.033Z,-2.9
2023-03-11T21:38:01.120Z,-2.7
2023-03-11T21:39:03.518Z,-2.8
2023-03-11T21:41:01.074Z,-2.9
2023-03-11T21:43:01.013Z,-2.7
2023-03-11T21:48:01.029Z,-2.8
2023-03-11T21:51:01.066Z,-2.8
2023-03-11T21:52:02.157Z,-3
2023-03-11T21:54:01.093Z,-2.9
2023-03-11T21:58:01.098Z,-3
2023-03-11T21:59:01.043Z,-2.9
2023-03-11T22:00:01.082Z,-2.8
2023-03-11T22:02:01.208Z,-3
2023-03-11T22:04:01.042Z,-3
2023-03-11T22:05:01.058Z,-2.9
2023-03-11T22:11:00.960Z,-3
2023-03-11T22:12:01.035Z,-2.9
2023-03-11T22:13:01.078Z,-2.8
2023-03-11T22:14:01.145Z,-2.9
2023-03-11T22:17:01.161Z,-2.8
2023-03-11T22:19:00.972Z,-2.9
2023-03-11T22:21:00.970Z,-3
2023-03-11T22:22:01.028Z,-2.9
2023-03-11T22:25:00.988Z,-2.8
2023-03-11T22:27:00.955Z,-2.8
2023-03-11T22:28:00.971Z,-2.9
2023-03-11T22:33:00.956Z,-3
2023-03-11T22:34:00.985Z,-2.9
2023-03-11T22:35:00.990Z,-3
2023-03-11T22:42:01.027Z,-3.1
2023-03-11T22:48:01.021Z,-3.1
2023-03-11T22:50:00.959Z,-3
2023-03-11T22:51:00.971Z,-3.1
2023-03-11T22:53:01.114Z,-3.1
2023-03-11T22:56:01.003Z,-3.1
2023-03-11T22:58:00.945Z,-3.2
2023-03-11T22:59:01.028Z,-3.1
2023-03-11T23:03:01.024Z,-3.2
2023-03-11T23:04:01.101Z,-3.1
2023-03-11T23:07:00.985Z,-3.2
2023-03-11T23:08:00.975Z,-3.3
2023-03-11T23:09:00.968Z,-3.2
2023-03-11T23:11:01.022Z,-3.1
2023-03-11T23:13:00.946Z,-3.2
2023-03-11T23:15:01.239Z,-3.3
2023-03-11T23:17:00.981Z,-3.1
2023-03-11T23:19:00.963Z,-3.2
2023-03-11T23:20:00.986Z,-3.3
2023-03-11T23:23:00.977Z,-3.3
2023-03-11T23:28:01.016Z,-3.2
2023-03-11T23:31:01.143Z,-3.3
2023-03-11T23:35:00.982Z,-3.2
2023-03-11T23:36:01.064Z,-3.4
2023-03-11T23:37:01.629Z,-3.2
2023-03-11T23:40:00.991Z,-3.3
2023-03-11T23:42:02.107Z,-3.5
2023-03-11T23:43:00.952Z,-3.3
2023-03-11T23:44:00.945Z,-3.5
2023-03-11T23:45:00.962Z,-3.4
2023-03-11T23:47:00.962Z,-3.5
2023-03-11T23:52:00.956Z,-3.4
2023-03-11T23:53:01.010Z,-3.6
2023-03-11T23:55:00.941Z,-3.6
2023-03-11T23:57:00.988Z,-3.5
